createdAt,value
2023-10-10T00:00:19.675Z,0.00
2023-10-10T00:01:19.825Z,0.00
2023-10-10T00:02:20.469Z,0.00
2023-10-10T00:03:20.022Z,0.00
2023-10-10T00:04:19.979Z,0.00
2023-10-10T00:05:20.234Z,0.00
2023-10-10T00:06:20.154Z,0.00
2023-10-10T00:07:20.459Z,0.00
2023-10-10T00:08:20.350Z,0.00
2023-10-10T00:09:21.896Z,0.00
2023-10-10T00:10:20.486Z,0.00
2023-10-10T00:11:20.921Z,0.00
2023-10-10T00:12:20.644Z,0.00
2023-10-10T00:13:20.808Z,0.00
2023-10-10T00:14:21.010Z,0.00
2023-10-10T00:15:20.887Z,0.00
2023-10-10T00:16:21.051Z,0.00
2023-10-10T00:17:21.179Z,0.00
2023-10-10T00:18:21.199Z,0.00
2023-10-10T00:19:21.443Z,0.00
2023-10-10T00:20:21.311Z,0.00
2023-10-10T00:21:21.341Z,0.00
2023-10-10T00:22:21.689Z,0.00
2023-10-10T00:23:21.534Z,0.00
2023-10-10T00:24:21.585Z,0.00
2023-10-10T00:25:21.658Z,0.00
2023-10-10T00:26:21.725Z,0.00
2023-10-10T00:27:21.803Z,0.00
2023-10-10T00:28:21.906Z,0.00
2023-10-10T00:29:21.996Z,0.00
2023-10-10T00:30:21.994Z,0.00
2023-10-10T00:31:22.145Z,0.00
2023-10-10T00:32:22.271Z,0.00
2023-10-10T00:33:22.294Z,0.00
2023-10-10T00:34:22.363Z,0.00
2023-10-10T00:35:22.465Z,0.00
2023-10-10T00:36:22.539Z,0.00
2023-10-10T00:37:22.585Z,0.00
2023-10-10T00:38:22.703Z,0.00
2023-10-10T00:39:22.736Z,0.00
2023-10-10T00:40:22.833Z,0.00
2023-10-10T00:41:22.934Z,0.00
2023-10-10T00:42:22.999Z,0.00
2023-10-10T00:43:23.068Z,0.00
2023-10-10T00:44:23.250Z,0.00
2023-10-10T00:45:23.229Z,0.00
2023-10-10T00:46:23.600Z,0.00
2023-10-10T00:47:23.439Z,0.00
2023-10-10T00:48:23.831Z,0.00
2023-10-10T00:49:23.568Z,0.00
2023-10-10T00:50:23.688Z,0.00
2023-10-10T00:51:23.686Z,0.00
2023-10-10T00:52:23.778Z,0.00
2023-10-10T00:53:23.881Z,0.00
2023-10-10T00:54:23.957Z,0.00
2023-10-10T00:55:23.968Z,0.00
2023-10-10T00:56:24.353Z,0.00
2023-10-10T00:57:24.104Z,0.00
2023-10-10T00:58:24.173Z,0.00
2023-10-10T00:59:24.305Z,0.00
2023-10-10T01:00:24.303Z,0.00
2023-10-10T01:01:24.399Z,0.00
2023-10-10T01:02:24.881Z,0.00
2023-10-10T01:03:24.779Z,0.00
2023-10-10T01:04:24.615Z,0.00
2023-10-10T01:05:24.731Z,0.00
2023-10-10T01:06:24.757Z,0.00
2023-10-10T01:07:24.794Z,0.00
2023-10-10T01:08:24.973Z,0.00
2023-10-10T01:09:24.952Z,0.00
2023-10-10T01:10:25.031Z,0.00
2023-10-10T01:11:25.165Z,0.00
2023-10-10T01:12:25.217Z,0.00
2023-10-10T01:13:25.259Z,0.00
2023-10-10T01:14:25.362Z,0.00
2023-10-10T01:15:25.410Z,0.00
2023-10-10T01:16:25.573Z,0.00
2023-10-10T01:17:25.636Z,0.00
2023-10-10T01:18:25.806Z,0.00
2023-10-10T01:19:25.678Z,0.00
2023-10-10T01:20:26.101Z,0.00
2023-10-10T01:21:25.876Z,0.00
2023-10-10T01:22:25.960Z,0.00
2023-10-10T01:23:26.059Z,0.00
2023-10-10T01:24:26.083Z,0.00
2023-10-10T01:25:26.159Z,0.00
2023-10-10T01:26:26.267Z,0.00
2023-10-10T01:27:26.321Z,0.00
2023-10-10T01:28:26.372Z,0.00
2023-10-10T01:29:26.799Z,0.00
2023-10-10T01:30:26.557Z,0.00
2023-10-10T01:31:26.679Z,0.00
2023-10-10T01:32:26.686Z,0.00
2023-10-10T01:33:26.729Z,0.00
2023-10-10T01:34:27.057Z,0.00
2023-10-10T01:35:27.144Z,0.00
2023-10-10T01:36:26.955Z,0.00
2023-10-10T01:37:27.041Z,0.00
2023-10-10T01:38:27.179Z,0.00
2023-10-10T01:39:27.169Z,0.00
2023-10-10T01:40:27.285Z,0.00
2023-10-10T01:41:27.349Z,0.00
2023-10-10T01:42:27.424Z,0.00
2023-10-10T01:43:27.518Z,0.00
2023-10-10T01:44:27.629Z,0.00
2023-10-10T01:45:27.680Z,0.00
2023-10-10T01:46:27.782Z,0.00
2023-10-10T01:47:28.244Z,0.00
2023-10-10T01:48:27.922Z,0.00
2023-10-10T01:49:27.969Z,0.00
2023-10-10T01:50:28.624Z,0.00
2023-10-10T01:51:28.273Z,0.00
2023-10-10T01:52:28.279Z,0.00
2023-10-10T01:53:28.323Z,0.00
2023-10-10T01:54:28.411Z,0.00
2023-10-10T01:55:28.478Z,0.00
2023-10-10T01:56:28.625Z,0.00
2023-10-10T01:57:28.653Z,0.00
2023-10-10T01:58:28.757Z,0.00
2023-10-10T01:59:28.832Z,0.00
2023-10-10T02:00:28.979Z,0.00
2023-10-10T02:01:28.957Z,0.00
2023-10-10T02:02:29.126Z,0.00
2023-10-10T02:03:29.387Z,0.00
2023-10-10T02:04:29.201Z,0.00
2023-10-10T02:05:29.297Z,0.00
2023-10-10T02:06:29.617Z,0.00
2023-10-10T02:07:29.432Z,0.00
2023-10-10T02:08:29.601Z,0.00
2023-10-10T02:09:29.586Z,0.00
2023-10-10T02:10:29.685Z,0.00
2023-10-10T02:11:30.079Z,0.00
2023-10-10T02:12:29.832Z,0.00
2023-10-10T02:13:29.904Z,0.00
2023-10-10T02:14:30.282Z,0.00
2023-10-10T02:15:30.389Z,0.00
2023-10-10T02:16:30.503Z,0.00
2023-10-10T02:17:30.345Z,0.00
2023-10-10T02:18:30.330Z,0.00
2023-10-10T02:19:33.079Z,0.00
2023-10-10T02:20:30.879Z,0.00
2023-10-10T02:21:30.579Z,0.00
2023-10-10T02:22:30.679Z,0.00
2023-10-10T02:23:31.067Z,0.00
2023-10-10T02:24:30.828Z,0.00
2023-10-10T02:25:30.894Z,0.00
2023-10-10T02:26:31.010Z,0.00
2023-10-10T02:27:31.030Z,0.00
2023-10-10T02:28:31.147Z,0.00
2023-10-10T02:29:31.228Z,0.00
2023-10-10T02:30:31.266Z,0.00
2023-10-10T02:31:31.333Z,0.00
2023-10-10T02:32:31.532Z,0.00
2023-10-10T02:33:31.478Z,0.00
2023-10-10T02:34:31.581Z,0.00
2023-10-10T02:35:31.653Z,0.00
2023-10-10T02:36:32.162Z,0.00
2023-10-10T02:37:31.744Z,0.00
2023-10-10T02:38:31.875Z,0.00
2023-10-10T02:39:31.882Z,0.00
2023-10-10T02:40:31.980Z,0.00
2023-10-10T02:41:32.073Z,0.00
2023-10-10T02:42:32.134Z,0.00
2023-10-10T02:43:32.198Z,0.00
2023-10-10T02:44:32.297Z,0.00
2023-10-10T02:45:32.369Z,0.00
2023-10-10T02:46:32.455Z,0.00
2023-10-10T02:47:32.888Z,0.00
2023-10-10T02:48:32.570Z,0.00
2023-10-10T02:49:32.661Z,0.00
2023-10-10T02:50:32.801Z,0.00
2023-10-10T02:51:32.853Z,0.00
2023-10-10T02:52:32.860Z,0.00
2023-10-10T02:53:33.436Z,0.00
2023-10-10T02:54:33.015Z,0.00
2023-10-10T02:55:33.145Z,0.00
2023-10-10T02:56:33.292Z,0.00
2023-10-10T02:57:33.280Z,0.00
2023-10-10T02:58:33.353Z,0.00
2023-10-10T02:59:33.521Z,0.00
2023-10-10T03:00:33.544Z,0.00
2023-10-10T03:01:33.621Z,0.00
2023-10-10T03:02:33.774Z,0.00
2023-10-10T03:03:34.341Z,0.00
2023-10-10T03:04:33.799Z,0.00
2023-10-10T03:05:33.940Z,0.00
2023-10-10T03:06:33.960Z,0.00
2023-10-10T03:07:34.055Z,0.00
2023-10-10T03:08:34.153Z,0.00
2023-10-10T03:09:34.197Z,0.00
2023-10-10T03:10:34.286Z,0.00
2023-10-10T03:11:34.406Z,0.00
2023-10-10T03:12:34.459Z,0.00
2023-10-10T03:13:34.530Z,0.00
2023-10-10T03:14:34.641Z,0.00
2023-10-10T03:15:34.825Z,0.00
2023-10-10T03:16:34.811Z,0.00
2023-10-10T03:17:34.895Z,0.00
2023-10-10T03:18:34.895Z,0.00
2023-10-10T03:19:34.974Z,0.00
2023-10-10T03:20:35.081Z,0.00
2023-10-10T03:21:35.134Z,0.00
2023-10-10T03:22:35.253Z,0.00
2023-10-10T03:23:35.328Z,0.00
2023-10-10T03:24:35.374Z,0.00
2023-10-10T03:25:35.452Z,0.00
2023-10-10T03:26:35.884Z,0.00
2023-10-10T03:27:35.643Z,0.00
2023-10-10T03:28:35.703Z,0.00
2023-10-10T03:29:36.047Z,0.00
2023-10-10T03:30:35.817Z,0.00
2023-10-10T03:31:35.950Z,0.00
2023-10-10T03:32:36.038Z,0.00
2023-10-10T03:33:36.339Z,0.00
2023-10-10T03:34:36.143Z,0.00
2023-10-10T03:35:36.269Z,0.00
2023-10-10T03:36:36.307Z,0.00
2023-10-10T03:37:36.375Z,0.00
2023-10-10T03:38:36.513Z,0.00
2023-10-10T03:39:36.536Z,0.00
2023-10-10T03:40:36.807Z,0.00
2023-10-10T03:41:36.679Z,0.00
2023-10-10T03:42:36.738Z,0.00
2023-10-10T03:43:36.821Z,0.00
2023-10-10T03:44:36.990Z,0.00
2023-10-10T03:45:36.961Z,0.00
2023-10-10T03:46:37.045Z,0.00
2023-10-10T03:47:37.151Z,0.00
2023-10-10T03:48:37.224Z,0.00
2023-10-10T03:49:37.266Z,0.00
2023-10-10T03:50:37.398Z,0.00
2023-10-10T03:51:37.450Z,0.00
2023-10-10T03:52:37.502Z,0.00
2023-10-10T03:53:37.624Z,0.00
2023-10-10T03:54:37.900Z,0.00
2023-10-10T03:55:37.754Z,0.00
2023-10-10T03:56:37.831Z,0.00
2023-10-10T03:57:38.119Z,0.00
2023-10-10T03:58:37.938Z,0.00
2023-10-10T03:59:38.084Z,0.00
2023-10-10T04:00:38.133Z,0.00
2023-10-10T04:01:38.213Z,0.00
2023-10-10T04:02:38.383Z,0.00
2023-10-10T04:03:38.418Z,0.00
2023-10-10T04:04:38.402Z,0.00
2023-10-10T04:05:38.731Z,0.00
2023-10-10T04:06:38.569Z,0.00
2023-10-10T04:07:39.359Z,0.00
2023-10-10T04:08:38.747Z,0.00
2023-10-10T04:09:39.052Z,0.00
2023-10-10T04:10:38.841Z,0.00
2023-10-10T04:11:39.002Z,0.00
2023-10-10T04:12:38.993Z,0.00
2023-10-10T04:13:39.071Z,0.00
2023-10-10T04:14:39.255Z,0.00
2023-10-10T04:15:39.233Z,0.00
2023-10-10T04:16:39.344Z,0.00
2023-10-10T04:17:39.462Z,0.00
2023-10-10T04:18:39.435Z,0.00
2023-10-10T04:19:39.559Z,0.00
2023-10-10T04:20:39.655Z,0.00
2023-10-10T04:21:39.738Z,0.00
2023-10-10T04:22:40.731Z,0.00
2023-10-10T04:23:40.160Z,0.00
2023-10-10T04:24:39.913Z,0.00
2023-10-10T04:25:40.000Z,0.00
2023-10-10T04:26:40.689Z,0.00
2023-10-10T04:27:40.132Z,0.00
2023-10-10T04:28:40.212Z,0.00
2023-10-10T04:29:40.403Z,0.00
2023-10-10T04:30:40.410Z,0.00
2023-10-10T04:31:40.563Z,0.00
2023-10-10T04:32:40.785Z,0.00
2023-10-10T04:33:40.888Z,0.00
2023-10-10T04:34:40.680Z,0.00
2023-10-10T04:35:40.783Z,0.00
2023-10-10T04:36:40.828Z,0.00
2023-10-10T04:37:40.937Z,0.00
2023-10-10T04:38:41.274Z,0.00
2023-10-10T04:39:41.046Z,0.00
2023-10-10T04:40:41.384Z,0.00
2023-10-10T04:41:41.338Z,0.00
2023-10-10T04:42:41.394Z,0.00
2023-10-10T04:43:41.617Z,0.00
2023-10-10T04:44:41.476Z,0.00
2023-10-10T04:45:41.817Z,0.00
2023-10-10T04:46:41.608Z,0.00
2023-10-10T04:47:42.031Z,0.00
2023-10-10T04:48:41.735Z,0.00
2023-10-10T04:49:42.115Z,0.00
2023-10-10T04:50:42.211Z,0.00
2023-10-10T04:51:41.981Z,0.00
2023-10-10T04:52:42.104Z,0.00
2023-10-10T04:53:42.459Z,0.00
2023-10-10T04:54:42.457Z,0.00
2023-10-10T04:55:42.311Z,0.00
2023-10-10T04:56:42.438Z,0.00
2023-10-10T04:57:42.490Z,0.00
2023-10-10T04:58:42.554Z,0.00
2023-10-10T04:59:42.698Z,0.00
2023-10-10T05:00:42.677Z,0.00
2023-10-10T05:01:42.791Z,0.00
2023-10-10T05:02:42.952Z,0.00
2023-10-10T05:03:43.387Z,0.00
2023-10-10T05:04:42.967Z,0.00
2023-10-10T05:05:43.052Z,0.00
2023-10-10T05:06:43.118Z,0.00
2023-10-10T05:07:43.216Z,0.00
2023-10-10T05:08:43.446Z,0.00
2023-10-10T05:09:43.380Z,0.00
2023-10-10T05:10:43.465Z,0.00
2023-10-10T05:11:43.598Z,0.00
2023-10-10T05:12:43.668Z,0.00
2023-10-10T05:13:43.752Z,0.00
2023-10-10T05:14:43.784Z,0.00
2023-10-10T05:15:43.912Z,0.00
2023-10-10T05:16:44.207Z,0.00
2023-10-10T05:17:44.050Z,0.00
2023-10-10T05:18:44.037Z,0.00
2023-10-10T05:19:44.153Z,0.00
2023-10-10T05:20:44.308Z,0.00
2023-10-10T05:21:44.318Z,0.00
2023-10-10T05:22:44.334Z,0.00
2023-10-10T05:23:44.493Z,0.00
2023-10-10T05:24:44.657Z,0.00
2023-10-10T05:25:44.795Z,0.00
2023-10-10T05:26:44.670Z,0.00
2023-10-10T05:27:44.752Z,0.00
2023-10-10T05:28:44.800Z,0.00
2023-10-10T05:29:44.935Z,0.00
2023-10-10T05:30:44.973Z,0.00
2023-10-10T05:31:45.061Z,0.00
2023-10-10T05:32:45.191Z,0.00
2023-10-10T05:33:45.172Z,0.00
2023-10-10T05:34:45.555Z,0.00
2023-10-10T05:35:45.552Z,0.00
2023-10-10T05:36:45.480Z,0.00
2023-10-10T05:37:45.523Z,0.00
2023-10-10T05:38:45.632Z,0.00
2023-10-10T05:39:45.721Z,0.00
2023-10-10T05:40:45.776Z,0.00
2023-10-10T05:41:45.984Z,0.00
2023-10-10T05:42:45.924Z,0.00
2023-10-10T05:43:46.105Z,0.00
2023-10-10T05:44:46.111Z,0.00
2023-10-10T05:45:46.204Z,0.00
2023-10-10T05:46:46.331Z,0.00
2023-10-10T05:47:46.407Z,5.62
2023-10-10T05:48:47.262Z,5.62
2023-10-10T05:49:46.533Z,5.62
2023-10-10T05:50:46.605Z,5.62
2023-10-10T05:51:46.691Z,5.62
2023-10-10T05:52:46.778Z,11.25
2023-10-10T05:53:46.900Z,11.25
2023-10-10T05:54:46.911Z,11.25
2023-10-10T05:55:46.985Z,11.25
2023-10-10T05:56:47.130Z,16.88
2023-10-10T05:57:47.313Z,16.88
2023-10-10T05:58:47.224Z,16.88
2023-10-10T05:59:47.323Z,16.88
2023-10-10T06:00:47.422Z,16.88
2023-10-10T06:01:47.466Z,22.50
2023-10-10T06:02:47.583Z,28.12
2023-10-10T06:03:47.707Z,28.12
2023-10-10T06:04:47.660Z,28.12
2023-10-10T06:05:47.834Z,33.75
2023-10-10T06:06:47.864Z,33.75
2023-10-10T06:07:47.952Z,39.38
2023-10-10T06:08:48.098Z,39.38
2023-10-10T06:09:48.118Z,45.00
2023-10-10T06:10:48.209Z,45.00
2023-10-10T06:11:48.339Z,50.62
2023-10-10T06:12:48.371Z,50.62
2023-10-10T06:13:48.501Z,50.62
2023-10-10T06:14:48.607Z,56.25
2023-10-10T06:15:48.656Z,56.25
2023-10-10T06:16:48.736Z,56.25
2023-10-10T06:17:48.875Z,61.88
2023-10-10T06:18:49.293Z,61.88
2023-10-10T06:19:48.959Z,61.88
2023-10-10T06:21:49.144Z,67.50
2023-10-10T06:22:49.182Z,67.50
2023-10-10T06:23:49.355Z,73.12
2023-10-10T06:24:49.389Z,73.12
2023-10-10T06:25:49.394Z,73.12
2023-10-10T06:26:49.524Z,78.75
2023-10-10T06:27:49.542Z,78.75
2023-10-10T06:28:49.657Z,78.75
2023-10-10T06:29:49.735Z,78.75
2023-10-10T06:30:49.784Z,84.38
2023-10-10T06:31:49.862Z,84.38
2023-10-10T06:32:51.452Z,84.38
2023-10-10T06:33:50.094Z,84.38
2023-10-10T06:34:50.795Z,90.00
2023-10-10T06:35:50.163Z,90.00
2023-10-10T06:36:50.242Z,90.00
2023-10-10T06:37:50.323Z,95.62
2023-10-10T06:38:50.425Z,95.62
2023-10-10T06:39:50.480Z,95.62
2023-10-10T06:40:50.576Z,101.25
2023-10-10T06:41:50.680Z,101.25
2023-10-10T06:42:50.752Z,106.88
2023-10-10T06:43:50.843Z,106.88
2023-10-10T06:44:50.962Z,112.50
2023-10-10T06:45:51.063Z,112.50
2023-10-10T06:46:51.126Z,118.12
2023-10-10T06:47:51.302Z,118.12
2023-10-10T06:48:51.267Z,118.12
2023-10-10T06:49:51.371Z,123.75
2023-10-10T06:50:51.464Z,123.75
2023-10-10T06:51:51.559Z,129.38
2023-10-10T06:52:51.617Z,129.38
2023-10-10T06:53:51.734Z,135.00
2023-10-10T06:54:51.769Z,140.62
2023-10-10T06:55:51.868Z,135.00
2023-10-10T06:56:51.969Z,140.62
2023-10-10T06:57:52.078Z,140.62
2023-10-10T06:58:52.114Z,146.25
2023-10-10T06:59:52.193Z,146.25
2023-10-10T07:00:52.376Z,151.88
2023-10-10T07:01:52.378Z,157.50
2023-10-10T07:02:52.572Z,163.12
2023-10-10T07:03:52.592Z,174.38
2023-10-10T07:04:52.661Z,180.00
2023-10-10T07:05:52.729Z,180.00
2023-10-10T07:06:52.835Z,174.38
2023-10-10T07:07:52.879Z,180.00
2023-10-10T07:08:52.969Z,191.25
2023-10-10T07:09:53.052Z,196.88
2023-10-10T07:10:53.164Z,202.50
2023-10-10T07:11:53.249Z,202.50
2023-10-10T07:12:53.330Z,213.75
2023-10-10T07:13:53.441Z,213.75
2023-10-10T07:14:53.608Z,219.38
2023-10-10T07:15:53.940Z,225.00
2023-10-10T07:16:53.662Z,230.62
2023-10-10T07:17:53.837Z,236.25
2023-10-10T07:18:53.825Z,236.25
2023-10-10T07:19:53.904Z,241.88
2023-10-10T07:20:54.010Z,241.88
2023-10-10T07:21:54.093Z,241.88
2023-10-10T07:22:54.153Z,247.50
2023-10-10T07:23:54.281Z,253.12
2023-10-10T07:24:54.393Z,253.12
2023-10-10T07:25:54.433Z,253.12
2023-10-10T07:26:54.495Z,253.12
2023-10-10T07:27:54.582Z,258.75
2023-10-10T07:28:55.018Z,258.75
2023-10-10T07:29:54.733Z,264.38
2023-10-10T07:30:54.861Z,264.38
2023-10-10T07:31:54.922Z,258.75
2023-10-10T07:32:55.048Z,270.00
2023-10-10T07:33:55.113Z,281.25
2023-10-10T07:34:55.198Z,286.88
2023-10-10T07:35:55.239Z,281.25
2023-10-10T07:36:55.313Z,298.12
2023-10-10T07:37:55.409Z,303.75
2023-10-10T07:38:55.515Z,303.75
2023-10-10T07:39:55.556Z,320.62
2023-10-10T07:40:55.623Z,326.25
2023-10-10T07:41:55.749Z,326.25
2023-10-10T07:42:55.840Z,326.25
2023-10-10T07:43:55.963Z,331.88
2023-10-10T07:44:56.112Z,326.25
2023-10-10T07:45:56.073Z,348.75
2023-10-10T07:46:56.186Z,348.75
2023-10-10T07:47:56.302Z,354.38
2023-10-10T07:48:56.319Z,360.00
2023-10-10T07:49:56.428Z,365.62
2023-10-10T07:50:56.501Z,360.00
2023-10-10T07:51:56.824Z,376.88
2023-10-10T07:52:56.671Z,376.88
2023-10-10T07:53:56.763Z,388.12
2023-10-10T07:54:56.891Z,393.75
2023-10-10T07:55:56.940Z,410.62
2023-10-10T07:56:57.036Z,416.25
2023-10-10T07:57:57.106Z,421.88
2023-10-10T07:58:57.188Z,427.50
2023-10-10T07:59:57.299Z,433.12
2023-10-10T08:00:57.387Z,438.75
2023-10-10T08:01:57.407Z,444.38
2023-10-10T08:02:57.588Z,450.00
2023-10-10T08:03:57.698Z,455.62
2023-10-10T08:04:57.868Z,455.62
2023-10-10T08:05:57.719Z,483.75
2023-10-10T08:06:57.802Z,495.00
2023-10-10T08:07:57.894Z,500.62
2023-10-10T08:08:57.982Z,506.25
2023-10-10T08:09:58.224Z,495.00
2023-10-10T08:10:58.143Z,517.50
2023-10-10T08:11:58.375Z,523.12
2023-10-10T08:12:58.326Z,534.38
2023-10-10T08:13:58.374Z,540.00
2023-10-10T08:14:59.376Z,540.00
2023-10-10T08:15:58.500Z,540.00
2023-10-10T08:16:58.621Z,540.00
2023-10-10T08:17:58.757Z,534.38
2023-10-10T08:18:58.738Z,523.12
2023-10-10T08:19:58.849Z,523.12
2023-10-10T08:20:58.958Z,517.50
2023-10-10T08:21:59.021Z,511.88
2023-10-10T08:22:59.105Z,506.25
2023-10-10T08:23:59.188Z,511.88
2023-10-10T08:24:59.318Z,495.00
2023-10-10T08:25:59.350Z,489.38
2023-10-10T08:26:59.605Z,483.75
2023-10-10T08:27:59.513Z,500.62
2023-10-10T08:28:59.592Z,506.25
2023-10-10T08:29:59.699Z,523.12
2023-10-10T08:30:59.776Z,540.00
2023-10-10T08:31:59.823Z,540.00
2023-10-10T08:33:00.001Z,528.75
2023-10-10T08:34:00.006Z,523.12
2023-10-10T08:35:00.145Z,511.88
2023-10-10T08:36:00.260Z,506.25
2023-10-10T08:37:00.237Z,511.88
2023-10-10T08:38:00.329Z,511.88
2023-10-10T08:39:00.483Z,511.88
2023-10-10T08:40:00.436Z,511.88
2023-10-10T08:41:00.545Z,511.88
2023-10-10T08:42:00.627Z,511.88
2023-10-10T08:43:00.718Z,511.88
2023-10-10T08:44:00.830Z,506.25
2023-10-10T08:45:01.761Z,495.00
2023-10-10T08:46:01.004Z,489.38
2023-10-10T08:47:01.092Z,489.38
2023-10-10T08:48:01.217Z,511.88
2023-10-10T08:49:01.275Z,528.75
2023-10-10T08:50:01.346Z,517.50
2023-10-10T08:51:01.502Z,506.25
2023-10-10T08:52:01.749Z,511.88
2023-10-10T08:53:01.611Z,511.88
2023-10-10T08:54:01.788Z,534.38
2023-10-10T08:55:01.811Z,540.00
2023-10-10T08:56:01.862Z,562.50
2023-10-10T08:57:02.423Z,601.88
2023-10-10T08:58:01.986Z,630.00
2023-10-10T08:59:02.073Z,641.25
2023-10-10T09:00:02.251Z,635.62
2023-10-10T09:01:02.461Z,641.25
2023-10-10T09:02:02.350Z,669.38
2023-10-10T09:03:02.474Z,691.88
2023-10-10T09:04:02.572Z,753.75
2023-10-10T09:05:02.559Z,1018.12
2023-10-10T09:06:02.656Z,1361.25
2023-10-10T09:07:02.760Z,1400.62
2023-10-10T09:08:02.822Z,1366.88
2023-10-10T09:09:02.902Z,1220.62
2023-10-10T09:10:02.977Z,1147.50
2023-10-10T09:11:03.072Z,1175.62
2023-10-10T09:12:03.161Z,1248.75
2023-10-10T09:13:03.272Z,1299.38
2023-10-10T09:14:03.320Z,1417.50
2023-10-10T09:15:03.388Z,1321.88
2023-10-10T09:16:03.486Z,1378.12
2023-10-10T09:17:03.585Z,1305.00
2023-10-10T09:18:03.746Z,1383.75
2023-10-10T09:19:03.741Z,1456.88
2023-10-10T09:20:03.839Z,1535.62
2023-10-10T09:21:03.921Z,1597.50
2023-10-10T09:22:04.004Z,1631.25
2023-10-10T09:23:04.137Z,1698.75
2023-10-10T09:24:04.153Z,1670.62
2023-10-10T09:25:04.244Z,1642.50
2023-10-10T09:26:04.334Z,1726.88
2023-10-10T09:27:04.415Z,1760.62
2023-10-10T09:28:04.512Z,1811.25
2023-10-10T09:29:04.608Z,1850.62
2023-10-10T09:30:04.640Z,1906.88
2023-10-10T09:31:04.732Z,1890.00
2023-10-10T09:32:04.788Z,1755.00
2023-10-10T09:33:04.928Z,1732.50
2023-10-10T09:34:05.053Z,1828.12
2023-10-10T09:35:05.058Z,1951.88
2023-10-10T09:36:05.122Z,1963.12
2023-10-10T09:37:05.229Z,1906.88
2023-10-10T09:38:05.371Z,1974.38
2023-10-10T09:39:05.439Z,1929.38
2023-10-10T09:40:05.456Z,2070.00
2023-10-10T09:41:05.525Z,2053.12
2023-10-10T09:42:05.639Z,2098.12
2023-10-10T09:43:05.722Z,2081.25
2023-10-10T09:44:05.821Z,2053.12
2023-10-10T09:45:05.860Z,2126.25
2023-10-10T09:46:08.736Z,2086.88
2023-10-10T09:47:06.028Z,2058.75
2023-10-10T09:48:06.193Z,2036.25
2023-10-10T09:49:06.259Z,2143.12
2023-10-10T09:50:06.290Z,2064.38
2023-10-10T09:51:06.404Z,2120.62
2023-10-10T09:52:06.434Z,2182.50
2023-10-10T09:53:06.549Z,2205.00
2023-10-10T09:54:06.654Z,2126.25
2023-10-10T09:55:06.713Z,2126.25
2023-10-10T09:56:06.746Z,2086.88
2023-10-10T09:57:06.839Z,2086.88
2023-10-10T09:58:06.968Z,2143.12
2023-10-10T09:59:07.002Z,2075.62
2023-10-10T10:01:07.155Z,2041.88
2023-10-10T10:02:07.504Z,1929.38
2023-10-10T10:03:07.408Z,1850.62
2023-10-10T10:04:07.403Z,1811.25
2023-10-10T10:05:07.589Z,1839.38
2023-10-10T10:06:07.624Z,1788.75
2023-10-10T10:07:08.264Z,1749.38
2023-10-10T10:08:07.767Z,1788.75
2023-10-10T10:09:07.831Z,1895.62
2023-10-10T10:10:07.921Z,1940.62
2023-10-10T10:11:08.265Z,2126.25
2023-10-10T10:12:08.079Z,2064.38
2023-10-10T10:13:08.154Z,2120.62
2023-10-10T10:14:15.035Z,2075.62
2023-10-10T10:15:08.336Z,1867.50
2023-10-10T10:16:08.433Z,1901.25
2023-10-10T10:17:08.469Z,1861.88
2023-10-10T10:18:08.621Z,1890.00
2023-10-10T10:19:08.640Z,1878.75
2023-10-10T10:20:08.720Z,1901.25
2023-10-10T10:21:08.798Z,2002.50
2023-10-10T10:22:08.891Z,2019.38
2023-10-10T10:23:08.961Z,2075.62
2023-10-10T10:24:09.036Z,1957.50
2023-10-10T10:25:09.154Z,1918.12
2023-10-10T10:26:09.219Z,2205.00
2023-10-10T10:27:09.288Z,2244.38
2023-10-10T10:28:09.364Z,2109.38
2023-10-10T10:29:09.451Z,2233.12
2023-10-10T10:30:10.117Z,2098.12
2023-10-10T10:31:09.595Z,2092.50
2023-10-10T10:32:09.725Z,2019.38
2023-10-10T10:33:09.838Z,2216.25
2023-10-10T10:34:09.794Z,2188.12
2023-10-10T10:35:09.896Z,1991.25
2023-10-10T10:36:10.061Z,1974.38
2023-10-10T10:37:10.098Z,1856.25
2023-10-10T10:38:10.156Z,1890.00
2023-10-10T10:39:10.240Z,2070.00
2023-10-10T10:40:10.320Z,1850.62
2023-10-10T10:41:10.459Z,1704.38
2023-10-10T10:42:10.487Z,2120.62
2023-10-10T10:43:10.596Z,2160.00
2023-10-10T10:44:10.654Z,2278.12
2023-10-10T10:45:10.746Z,2570.62
2023-10-10T10:46:10.876Z,2401.88
2023-10-10T10:47:11.042Z,2137.50
2023-10-10T10:48:11.075Z,2137.50
2023-10-10T10:49:11.116Z,2300.62
2023-10-10T10:50:11.258Z,2283.75
2023-10-10T10:51:11.339Z,2694.38
2023-10-10T10:52:11.366Z,2638.12
2023-10-10T10:53:11.491Z,2739.38
2023-10-10T10:54:11.542Z,2553.75
2023-10-10T10:55:11.630Z,2401.88
2023-10-10T10:56:11.776Z,2531.25
2023-10-10T10:57:11.799Z,2486.25
2023-10-10T10:58:11.867Z,2514.38
2023-10-10T10:59:12.182Z,2722.50
2023-10-10T11:00:12.136Z,2548.12
2023-10-10T11:01:12.138Z,2694.38
2023-10-10T11:02:12.237Z,2970.00
2023-10-10T11:03:12.330Z,2941.88
2023-10-10T11:04:12.402Z,2992.50
2023-10-10T11:05:12.515Z,3054.38
2023-10-10T11:06:12.586Z,3189.38
2023-10-10T11:07:12.646Z,2880.00
2023-10-10T11:08:13.239Z,2587.50
2023-10-10T11:09:12.867Z,2683.12
2023-10-10T11:10:12.905Z,2851.88
2023-10-10T11:11:13.058Z,3093.75
2023-10-10T11:12:13.108Z,3110.62
2023-10-10T11:13:13.151Z,3178.12
2023-10-10T11:14:13.281Z,3048.75
2023-10-10T11:15:13.357Z,2604.38
2023-10-10T11:16:13.551Z,2761.88
2023-10-10T11:17:13.550Z,2970.00
2023-10-10T11:18:13.730Z,3386.25
2023-10-10T11:19:14.115Z,3453.75
2023-10-10T11:20:13.809Z,3240.00
2023-10-10T11:21:13.899Z,3200.62
2023-10-10T11:22:13.990Z,3318.75
2023-10-10T11:23:14.130Z,3425.62
2023-10-10T11:24:14.256Z,3442.50
2023-10-10T11:25:14.210Z,3633.75
2023-10-10T11:26:14.409Z,3566.25
2023-10-10T11:27:14.434Z,3549.38
2023-10-10T11:28:14.453Z,3577.50
2023-10-10T11:29:14.646Z,3566.25
2023-10-10T11:30:14.617Z,3538.12
2023-10-10T11:31:14.715Z,3335.62
2023-10-10T11:32:15.065Z,3453.75
2023-10-10T11:33:15.024Z,3757.50
2023-10-10T11:34:15.094Z,3802.50
2023-10-10T11:35:15.057Z,3678.75
2023-10-10T11:36:15.134Z,3560.62
2023-10-10T11:37:15.294Z,3583.12
2023-10-10T11:38:15.340Z,3414.38
2023-10-10T11:39:15.429Z,3532.50
2023-10-10T11:40:15.489Z,3577.50
2023-10-10T11:41:15.625Z,3774.38
2023-10-10T11:42:15.683Z,3673.12
2023-10-10T11:43:15.759Z,3808.12
2023-10-10T11:44:16.011Z,4207.50
2023-10-10T11:45:16.071Z,3802.50
2023-10-10T11:46:16.045Z,3465.00
2023-10-10T11:47:16.143Z,3487.50
2023-10-10T11:48:17.056Z,3504.38
2023-10-10T11:49:16.302Z,3521.25
2023-10-10T11:50:16.471Z,3712.50
2023-10-10T11:51:16.454Z,4083.75
2023-10-10T11:52:16.565Z,4196.25
2023-10-10T11:53:16.836Z,3645.00
2023-10-10T11:54:16.945Z,4033.12
2023-10-10T11:55:16.849Z,3397.50
2023-10-10T11:56:16.945Z,3847.50
2023-10-10T11:57:17.040Z,3909.38
2023-10-10T11:58:17.130Z,3256.88
2023-10-10T11:59:17.210Z,3746.25
2023-10-10T12:00:27.239Z,3526.88
2023-10-10T12:01:17.356Z,3020.62
2023-10-10T12:02:17.415Z,3802.50
2023-10-10T12:03:17.690Z,3515.62
2023-10-10T12:04:17.785Z,3577.50
2023-10-10T12:05:17.726Z,3515.62
2023-10-10T12:06:17.808Z,3718.12
2023-10-10T12:07:17.851Z,3577.50
2023-10-10T12:08:18.447Z,3195.00
2023-10-10T12:09:18.075Z,3189.38
2023-10-10T12:10:18.179Z,3937.50
2023-10-10T12:11:18.246Z,4483.12
2023-10-10T12:12:19.831Z,4511.25
2023-10-10T12:13:18.414Z,4106.25
2023-10-10T12:14:18.856Z,3960.00
2023-10-10T12:15:18.553Z,4066.88
2023-10-10T12:16:18.737Z,4128.75
2023-10-10T12:17:18.755Z,4027.50
2023-10-10T12:18:18.968Z,4123.12
2023-10-10T12:19:18.959Z,4055.62
2023-10-10T12:20:19.071Z,4224.38
2023-10-10T12:21:19.071Z,4134.38
2023-10-10T12:22:19.187Z,4320.00
2023-10-10T12:23:19.272Z,4320.00
2023-10-10T12:24:19.444Z,4185.00
2023-10-10T12:25:19.387Z,4342.50
2023-10-10T12:26:19.705Z,4241.25
2023-10-10T12:27:19.591Z,4393.12
2023-10-10T12:28:19.677Z,4668.75
2023-10-10T12:29:19.756Z,4280.62
2023-10-10T12:30:19.827Z,2936.25
2023-10-10T12:31:19.929Z,2452.50
2023-10-10T12:32:20.757Z,3099.38
2023-10-10T12:33:20.109Z,2857.50
2023-10-10T12:34:20.988Z,3307.50
2023-10-10T12:35:20.295Z,3116.25
2023-10-10T12:36:20.290Z,2497.50
2023-10-10T12:37:20.335Z,1923.75
2023-10-10T12:38:20.496Z,2210.62
2023-10-10T12:39:20.575Z,1884.38
2023-10-10T12:40:21.225Z,1704.38
2023-10-10T12:41:20.786Z,1760.62
2023-10-10T12:42:20.785Z,1715.62
2023-10-10T12:43:20.846Z,1951.88
2023-10-10T12:44:21.012Z,2103.75
2023-10-10T12:45:21.079Z,2126.25
2023-10-10T12:46:21.113Z,1968.75
2023-10-10T12:47:21.276Z,1828.12
2023-10-10T12:49:27.868Z,1687.50